Bountiful, Colorado
Current Conditions -  °F | °C
As of 4:52 AM on Tuesday 21 Oct 2014 (Local Time) from KALS Reporting Station
Clear Clear  
Wind Chill: -2°   Ceiling: Unl
Heat Index:   Visibility: 10mi
Dew Point: -1°   Wind: 7mph
Humidity: 85%   Direction: 160°SSE
Pressure: 30.23"   Gusts: NA
Location:  37.3121°N, 106.036°W
Report Text: KALS 211052Z AUTO 16006KT 10SM CLR 02/M01 A3023 RMK AO2 SLP180 T00171006
Loading
Personal Weather Stations






























Interactive Weather Map
Tropical Storm Tracking
New forecast layout! Learn more

10-Day Weather Forecast

Advertisements
Track Severe Weather on mobile